createdAt,value
2022-11-18T00:01:07.725Z,99281.38
2022-11-18T00:06:12.852Z,99310.50
2022-11-18T00:11:39.224Z,99323.31
2022-11-18T00:16:41.769Z,99322.06
2022-11-18T00:21:44.455Z,99321.78
2022-11-18T00:26:48.607Z,99332.94
2022-11-18T00:31:51.138Z,99342.25
2022-11-18T00:36:53.658Z,99341.56
2022-11-18T00:42:15.194Z,99338.75
2022-11-18T00:47:18.745Z,99346.28
2022-11-18T00:52:22.973Z,99310.34
2022-11-18T00:57:26.950Z,99355.38
2022-11-18T01:02:29.489Z,99361.75
2022-11-18T01:07:32.124Z,99370.25
2022-11-18T01:12:54.656Z,99380.97
2022-11-18T01:17:57.302Z,99379.19
2022-11-18T01:23:00.295Z,99391.72
2022-11-18T01:28:04.411Z,99397.41
2022-11-18T01:33:07.243Z,99402.72
2022-11-18T01:38:12.405Z,99409.28
2022-11-18T01:43:18.761Z,99404.81
2022-11-18T01:48:25.825Z,99410.09
2022-11-18T01:53:33.696Z,99409.81
2022-11-18T01:58:40.152Z,99410.78
2022-11-18T02:03:44.178Z,99299.97
2022-11-18T02:08:47.515Z,99412.59
2022-11-18T02:13:51.391Z,99415.50
2022-11-18T02:18:59.485Z,99368.78
2022-11-18T02:24:29.375Z,99437.38
2022-11-18T02:29:41.748Z,99440.72
2022-11-18T02:34:50.885Z,99441.56
2022-11-18T02:39:59.211Z,99434.03
2022-11-18T02:51:52.829Z,99404.72
2022-11-18T02:56:56.241Z,99441.13
2022-11-18T03:01:59.475Z,99443.25
2022-11-18T03:07:12.883Z,99455.50
2022-11-18T03:12:23.663Z,99456.03
2022-11-18T03:17:41.396Z,99471.63
2022-11-18T03:22:53.464Z,99473.88
2022-11-18T03:28:01.559Z,99463.38
2022-11-18T03:33:10.073Z,99490.16
2022-11-18T03:38:18.399Z,99495.84
2022-11-18T03:43:25.087Z,99506.31
2022-11-18T03:48:31.604Z,99504.50
2022-11-18T03:53:39.474Z,99518.56
2022-11-18T03:58:48.316Z,99517.81
2022-11-18T04:03:51.730Z,99472.44
2022-11-18T04:09:01.638Z,99511.00
2022-11-18T04:14:05.363Z,99442.13
2022-11-18T04:19:08.125Z,99544.03
2022-11-18T04:24:12.026Z,99442.66
2022-11-18T04:29:14.753Z,99560.19
2022-11-18T04:34:18.271Z,99525.34
2022-11-18T04:39:22.276Z,99565.44
2022-11-18T04:44:26.621Z,99574.69
2022-11-18T04:49:29.956Z,99574.91
2022-11-18T04:54:34.138Z,99581.38
2022-11-18T04:59:37.042Z,99588.81
2022-11-18T05:04:39.769Z,99587.97
2022-11-18T05:09:43.891Z,99593.84
2022-11-18T05:14:50.065Z,99595.97
2022-11-18T05:19:53.508Z,99597.91
2022-11-18T05:24:57.375Z,99596.81
2022-11-18T05:29:59.990Z,99605.47
2022-11-18T05:35:02.567Z,99618.69
2022-11-18T05:40:08.152Z,99614.97
2022-11-18T05:45:10.930Z,99619.28
2022-11-18T05:50:18.571Z,99625.84
2022-11-18T05:55:27.668Z,99524.53
2022-11-18T06:00:30.767Z,99642.69
2022-11-18T06:05:33.462Z,99651.34
2022-11-18T06:10:38.924Z,99656.75
2022-11-18T06:15:44.601Z,99657.59
2022-11-18T06:20:48.118Z,99671.81
2022-11-18T06:25:52.181Z,99679.75
2022-11-18T06:30:54.754Z,99685.72
2022-11-18T06:35:57.403Z,99692.31
2022-11-18T06:41:01.981Z,99701.94
2022-11-18T06:46:25.485Z,99691.47
2022-11-18T06:51:29.783Z,99713.91
2022-11-18T06:56:35.611Z,99720.41
2022-11-18T07:01:40.839Z,99661.88
2022-11-18T07:06:43.484Z,99741.69
2022-11-18T07:11:47.360Z,99751.06
2022-11-18T07:16:50.092Z,99755.16
2022-11-18T07:21:52.774Z,99728.44
2022-11-18T07:26:56.703Z,99771.63
2022-11-18T07:31:59.646Z,99779.47
2022-11-18T07:37:02.224Z,99777.34
2022-11-18T07:42:06.319Z,99788.03
2022-11-18T07:47:08.918Z,99787.91
2022-11-18T07:52:11.467Z,99772.31
2022-11-18T07:57:15.743Z,99816.28
2022-11-18T08:02:18.358Z,99822.28
2022-11-18T08:07:21.016Z,99826.00
2022-11-18T08:12:24.956Z,99831.53
2022-11-18T08:17:27.579Z,99743.56
2022-11-18T08:22:30.125Z,99850.25
2022-11-18T08:27:34.104Z,99839.69
2022-11-18T08:32:36.606Z,99841.94
2022-11-18T08:37:39.279Z,99804.03
2022-11-18T08:42:43.153Z,99742.97
2022-11-18T08:47:45.661Z,99860.84
2022-11-18T08:52:48.222Z,99859.75
2022-11-18T08:57:52.690Z,99872.88
2022-11-18T09:02:55.262Z,99879.88
2022-11-18T09:07:57.796Z,99851.41
2022-11-18T09:13:24.854Z,99885.28
2022-11-18T09:18:24.477Z,99884.69
2022-11-18T09:23:27.366Z,99889.50
2022-11-18T09:28:31.810Z,99897.06
2022-11-18T09:33:34.694Z,99870.88
2022-11-18T09:38:37.281Z,99901.03
2022-11-18T09:43:53.916Z,99911.50
2022-11-18T09:49:16.185Z,99913.00
2022-11-18T09:54:22.651Z,99877.09
2022-11-18T09:59:28.989Z,99922.78
2022-11-18T10:04:31.546Z,99935.22
2022-11-18T10:09:38.778Z,99896.75
2022-11-18T10:21:41.861Z,99954.19
2022-11-18T10:26:44.532Z,99964.25
2022-11-18T10:31:59.705Z,99972.75
2022-11-18T10:37:08.270Z,99981.81
2022-11-18T10:42:22.116Z,99977.63
2022-11-18T10:47:30.427Z,99977.06
2022-11-18T10:52:53.026Z,99967.63
2022-11-18T10:58:02.713Z,99974.56
2022-11-18T11:03:33.848Z,99957.53
2022-11-18T11:08:48.991Z,99982.53
2022-11-18T11:13:53.667Z,99962.84
2022-11-18T11:19:00.745Z,99966.00
2022-11-18T11:24:12.336Z,99958.06
2022-11-18T11:29:29.881Z,99984.41
2022-11-18T11:34:41.403Z,99866.19
2022-11-18T11:40:03.785Z,99915.78
2022-11-18T11:45:18.811Z,99986.16
2022-11-18T11:50:28.731Z,99984.53
2022-11-18T11:55:40.352Z,99997.19
2022-11-18T12:00:47.753Z,99989.41
2022-11-18T12:05:50.731Z,99990.28
2022-11-18T12:11:04.342Z,99994.34
2022-11-18T12:16:17.309Z,99998.25
2022-11-18T12:22:03.831Z,99993.25
2022-11-18T12:27:13.818Z,99996.03
2022-11-18T12:32:28.018Z,99980.97
2022-11-18T12:37:59.100Z,99958.78
2022-11-18T12:43:21.608Z,100004.03
2022-11-18T12:48:33.330Z,100005.78
2022-11-18T12:53:40.222Z,99977.81
2022-11-18T12:58:47.372Z,100010.09
2022-11-18T13:03:50.006Z,100016.66
2022-11-18T13:08:58.653Z,100016.53
2022-11-18T13:14:22.607Z,100009.81
2022-11-18T13:19:26.495Z,100004.47
2022-11-18T13:24:29.454Z,100025.13
2022-11-18T13:29:43.134Z,100031.22
2022-11-18T13:34:48.556Z,100049.13
2022-11-18T13:39:51.587Z,100031.03
2022-11-18T13:44:58.758Z,99984.47
2022-11-18T13:50:07.372Z,100064.56
2022-11-18T13:55:18.191Z,100068.88
2022-11-18T14:00:26.024Z,100059.44
2022-11-18T14:05:29.315Z,100070.16
2022-11-18T14:10:39.235Z,100061.47
2022-11-18T14:15:44.315Z,100070.56
2022-11-18T14:20:52.299Z,100074.56
2022-11-18T14:25:56.202Z,100077.28
2022-11-18T14:31:03.798Z,100071.72
2022-11-18T14:36:14.951Z,100072.22
2022-11-18T14:41:44.886Z,100064.94
2022-11-18T14:46:53.338Z,100015.91
2022-11-18T14:51:56.209Z,100086.16
2022-11-18T14:57:02.378Z,100014.00
2022-11-18T15:02:07.687Z,100095.34
2022-11-18T15:07:18.597Z,100102.34
2022-11-18T15:12:25.667Z,100107.06
2022-11-18T15:17:29.702Z,100105.59
2022-11-18T15:22:32.338Z,100097.06
2022-11-18T15:27:35.092Z,100104.91
2022-11-18T15:32:38.981Z,100077.72
2022-11-18T15:37:41.954Z,100115.00
2022-11-18T15:42:51.470Z,100125.94
2022-11-18T15:47:56.094Z,100119.34
2022-11-18T15:52:58.871Z,100125.97
2022-11-18T15:58:01.810Z,100121.88
2022-11-18T16:03:05.792Z,100098.66
2022-11-18T16:08:08.305Z,100127.63
2022-11-18T16:13:10.835Z,100118.25
2022-11-18T16:18:15.114Z,100143.75
2022-11-18T16:23:17.852Z,100138.44
2022-11-18T16:28:20.613Z,100142.16
2022-11-18T16:33:24.529Z,100147.41
2022-11-18T16:38:27.284Z,100147.69
2022-11-18T16:43:29.828Z,100119.19
2022-11-18T16:48:33.709Z,100154.59
2022-11-18T16:53:36.215Z,100172.31
2022-11-18T16:58:38.742Z,100178.75
2022-11-18T17:03:43.421Z,100175.59
2022-11-18T17:08:46.383Z,100178.84
2022-11-18T17:13:52.136Z,100174.19
2022-11-18T17:19:00.498Z,100182.94
2022-11-18T17:24:05.995Z,100183.56
2022-11-18T17:29:10.003Z,100189.56
2022-11-18T17:34:16.115Z,100197.31
2022-11-18T17:39:20.620Z,100208.19
2022-11-18T17:44:24.407Z,100211.94
2022-11-18T17:49:28.350Z,100224.13
2022-11-18T17:54:30.896Z,100230.06
2022-11-18T17:59:33.424Z,100236.56
2022-11-18T18:04:37.320Z,100234.97
2022-11-18T18:09:40.308Z,100238.28
2022-11-18T18:14:43.617Z,100238.81
2022-11-18T18:19:47.624Z,100244.41
2022-11-18T18:24:50.474Z,100246.84
2022-11-18T18:29:53.439Z,100247.66
2022-11-18T18:34:57.489Z,100251.03
2022-11-18T18:40:00.437Z,100262.13
2022-11-18T18:45:20.620Z,100260.94
2022-11-18T18:50:29.505Z,100269.56
2022-11-18T18:55:32.411Z,100262.09
2022-11-18T19:00:35.013Z,100268.84
2022-11-18T19:06:16.962Z,100258.19
2022-11-18T19:11:05.812Z,100276.03
2022-11-18T19:16:09.761Z,100275.81
2022-11-18T19:21:13.684Z,100273.50
2022-11-18T19:26:17.196Z,100265.13
2022-11-18T19:31:20.186Z,100284.53
2022-11-18T19:36:46.367Z,100300.19
2022-11-18T19:41:51.008Z,100284.25
2022-11-18T19:46:59.884Z,100302.94
2022-11-18T19:52:04.828Z,100241.75
2022-11-18T19:57:08.029Z,100317.84
2022-11-18T20:02:11.803Z,100317.09
2022-11-18T20:07:16.312Z,100277.75
2022-11-18T20:12:19.211Z,100316.31
2022-11-18T20:17:23.041Z,100299.97
2022-11-18T20:22:27.004Z,100322.47
2022-11-18T20:27:29.647Z,100329.47
2022-11-18T20:32:32.452Z,100330.94
2022-11-18T20:37:36.610Z,100347.88
2022-11-18T20:42:57.018Z,100347.88
2022-11-18T20:47:59.718Z,100358.25
2022-11-18T20:53:03.609Z,100368.41
2022-11-18T20:58:06.166Z,100361.97
2022-11-18T21:03:10.976Z,100370.59
2022-11-18T21:08:15.566Z,100377.03
2022-11-18T21:13:35.697Z,100375.53
2022-11-18T21:18:38.270Z,100378.63
2022-11-18T21:23:42.251Z,100383.66
2022-11-18T21:28:44.836Z,100372.47
2022-11-18T21:33:48.723Z,100381.03
2022-11-18T21:38:53.196Z,100394.63
2022-11-18T21:44:11.526Z,100385.41
2022-11-18T21:49:14.506Z,100387.09
2022-11-18T21:54:18.953Z,100399.06
2022-11-18T21:59:23.556Z,100402.47
2022-11-18T22:04:43.862Z,100405.72
2022-11-18T22:09:47.956Z,100419.00
2022-11-18T22:14:50.545Z,100397.16
2022-11-18T22:19:53.088Z,100438.28
2022-11-18T22:24:57.267Z,100437.06
2022-11-18T22:29:59.795Z,100428.88
2022-11-18T22:35:02.464Z,100430.59
2022-11-18T22:40:07.840Z,100418.63
2022-11-18T22:45:10.767Z,100436.06
2022-11-18T22:50:13.396Z,100445.41
2022-11-18T22:55:17.665Z,100442.47
2022-11-18T23:00:20.381Z,100438.63
2022-11-18T23:05:23.339Z,100437.66
2022-11-18T23:10:27.213Z,100442.94
2022-11-18T23:15:29.740Z,100439.41
2022-11-18T23:20:32.271Z,100457.72
2022-11-18T23:25:36.237Z,100467.25
2022-11-18T23:30:38.783Z,100468.44
2022-11-18T23:35:41.355Z,100426.13
2022-11-18T23:40:45.265Z,100475.88
2022-11-18T23:45:47.814Z,100484.63
2022-11-18T23:50:57.482Z,100477.13
2022-11-18T23:56:03.859Z,100481.72
